Главная страница
METAR-TAF:

METAR-TAF

Аэропорты :

Эстерсунд-Frösön, Швеция

широта: 63-11N, долгота: 014-30E, высота над уровнем моря: 376 м

Текущие метеонаблюдения

Эта сводка был подготовлена 38 минут назад, в 22:20 UTC
Ветер 6 Узел от южный-юго-западный
Температура 5°C
Влажность 87%
Давление 1020 hPa
Видимость 10 км и более

METAR: ESNZ 192220Z AUTO 20006KT 9999 NCD 05/03 Q1020

Время: 00:58 (22:58 UTC)


TAF: отсутствует

Метеонаблюдения и прогнозы для более 4000 аэропортов (сводки METAR и TAF).

Имеющиеся станции представлены на карте желтыми и красными точками.

Чтобы увидеть название станции, наведите на нее мышь.

Затем щелкните, чтобы увидеть метеонаблюдения и метеопрогнозы.

Управление картой: чтобы увеличить масштаб, щелкните зеленые кнопки с черным крестиком; чтобы уменьшить масштаб, щелкните зеленую кнопку с тире; для просмотра соседних карт щелкайте зеленые стрелки.


METAR-TAF: